Time;durP1;ratioP1;P1;durP2;ratioP2;P2;SDS_P1;SDS_P2;PMS_P1;PMS_P2;Temp;Humidity;BMP_temperature;BMP_pressure;BME280_temperature;BME280_humidity;BME280_pressure;Samples;Min_cycle;Max_cycle;Signal;HPM_P1;HPM_P2
2023/10/19 00:00:22;;;;;;;4.10;2.72;;;13.60;99.90;;;;;;2055881;28;20198;-72
2023/10/19 00:01:27;;;;;;;4.33;2.20;;;13.60;99.90;;;;;;2056256;28;20206;-71
2023/10/19 00:02:28;;;;;;;5.45;2.28;;;13.60;99.90;;;;;;2055261;28;20231;-72
2023/10/19 00:03:29;;;;;;;3.47;2.40;;;13.60;99.90;;;;;;2056201;28;20241;-72
2023/10/19 00:04:32;;;;;;;5.35;2.10;;;13.60;99.90;;;;;;2054743;28;20332;-72
2023/10/19 00:05:33;;;;;;;4.97;2.43;;;13.60;99.90;;;;;;2054047;28;20241;-72
2023/10/19 00:06:36;;;;;;;3.40;2.47;;;13.70;99.90;;;;;;2055473;28;20484;-71
2023/10/19 00:07:37;;;;;;;5.38;2.40;;;13.80;99.90;;;;;;2052230;28;20246;-72
2023/10/19 00:08:43;;;;;;;5.10;2.33;;;13.80;99.90;;;;;;2056291;28;20620;-72
2023/10/19 00:09:48;;;;;;;3.55;2.47;;;13.80;99.90;;;;;;2059723;28;20238;-72
2023/10/19 00:11:02;;;;;;;5.63;3.10;;;13.80;99.90;;;;;;2055433;28;20223;-72
2023/10/19 00:12:09;;;;;;;3.77;2.23;;;13.80;99.90;;;;;;2053346;28;20226;-72
2023/10/19 00:13:14;;;;;;;6.63;2.60;;;13.90;99.90;;;;;;2053358;28;20492;-72
2023/10/19 00:14:18;;;;;;;5.33;2.30;;;13.90;99.90;;;;;;2055315;28;20195;-71
2023/10/19 00:15:23;;;;;;;4.93;2.47;;;13.90;99.90;;;;;;2055433;28;20866;-72
2023/10/19 00:16:29;;;;;;;3.97;2.10;;;13.90;99.90;;;;;;2052270;28;20452;-72
2023/10/19 00:17:32;;;;;;;6.43;2.30;;;13.90;99.90;;;;;;2056536;28;20479;-72
2023/10/19 00:18:34;;;;;;;2.97;2.00;;;13.90;99.90;;;;;;2056384;28;21002;-72
2023/10/19 00:19:57;;;;;;;3.67;2.17;;;13.90;99.90;;;;;;2055478;28;20476;-71
2023/10/19 00:22:21;;;;;;;5.27;2.40;;;13.90;99.90;;;;;;2055599;28;20489;-72
2023/10/19 00:23:31;;;;;;;3.57;2.30;;;13.80;99.90;;;;;;2056600;28;20444;-71
2023/10/19 00:24:32;;;;;;;3.60;2.10;;;13.90;99.90;;;;;;2055510;28;20884;-72
2023/10/19 00:25:34;;;;;;;5.23;2.17;;;14.00;99.90;;;;;;2054323;28;20469;-71
2023/10/19 00:26:35;;;;;;;5.20;2.87;;;13.90;99.90;;;;;;2055852;28;20239;-71
2023/10/19 00:27:35;;;;;;;5.03;2.43;;;14.00;99.90;;;;;;2055654;28;20493;-72
2023/10/19 00:28:38;;;;;;;3.67;2.27;;;14.00;99.90;;;;;;2055898;28;20228;-72
2023/10/19 00:29:47;;;;;;;2.70;1.97;;;14.00;99.90;;;;;;2054863;28;20309;-72
2023/10/19 00:30:51;;;;;;;3.37;2.50;;;14.00;99.90;;;;;;2046573;28;20466;-72
2023/10/19 00:31:52;;;;;;;4.33;2.10;;;13.90;99.90;;;;;;2055491;28;20472;-72
2023/10/19 00:32:54;;;;;;;5.07;2.30;;;14.00;99.90;;;;;;2052524;28;21010;-72
2023/10/19 00:33:55;;;;;;;3.97;2.30;;;14.10;99.90;;;;;;2055382;28;20238;-71
2023/10/19 00:34:56;;;;;;;5.93;1.90;;;14.10;99.90;;;;;;2052830;28;20477;-71
2023/10/19 00:36:08;;;;;;;5.93;2.57;;;14.20;99.90;;;;;;2055845;28;20277;-71
2023/10/19 00:37:10;;;;;;;4.93;2.00;;;14.10;99.90;;;;;;2055070;28;20705;-72
2023/10/19 00:39:40;;;;;;;3.47;2.20;;;14.20;99.90;;;;;;2050674;28;20473;-72
2023/10/19 00:40:41;;;;;;;3.70;2.00;;;14.20;99.90;;;;;;2048135;28;20461;-72
2023/10/19 00:41:43;;;;;;;5.37;2.20;;;14.10;99.90;;;;;;2038189;29;20519;-72
2023/10/19 00:42:46;;;;;;;4.23;2.20;;;14.10;99.90;;;;;;2040462;28;20315;-72
2023/10/19 00:43:49;;;;;;;3.50;2.17;;;14.00;99.90;;;;;;2040249;28;20475;-71
2023/10/19 00:44:50;;;;;;;2.47;2.27;;;14.00;99.90;;;;;;2044386;29;21035;-72
2023/10/19 00:45:52;;;;;;;4.40;2.13;;;14.00;99.90;;;;;;2047002;28;21003;-71
2023/10/19 00:47:07;;;;;;;5.20;2.33;;;14.00;99.90;;;;;;2048320;28;20473;-72
2023/10/19 00:48:11;;;;;;;3.80;1.90;;;14.00;99.90;;;;;;2046292;28;20441;-72
2023/10/19 00:49:14;;;;;;;2.57;2.03;;;13.90;99.90;;;;;;2055186;28;20516;-72
2023/10/19 00:50:15;;;;;;;4.27;1.93;;;14.00;99.90;;;;;;2047761;28;20520;-70
2023/10/19 00:52:40;;;;;;;2.87;2.00;;;14.00;99.90;;;;;;2044698;28;20495;-70
2023/10/19 00:53:41;;;;;;;2.73;1.80;;;14.10;99.90;;;;;;2049448;28;20469;-71
2023/10/19 00:55:52;;;;;;;2.33;1.90;;;14.10;99.90;;;;;;2055916;28;20222;-71
2023/10/19 00:56:56;;;;;;;2.00;1.70;;;14.10;99.90;;;;;;2054331;28;20476;-70
2023/10/19 00:57:57;;;;;;;3.50;2.00;;;14.20;99.90;;;;;;2056292;28;20923;-70
2023/10/19 01:00:34;;;;;;;3.87;1.97;;;14.10;99.90;;;;;;2066647;28;20498;-71
2023/10/19 01:01:40;;;;;;;2.63;1.73;;;14.20;99.90;;;;;;2063059;28;20472;-70
2023/10/19 01:02:44;;;;;;;2.43;1.77;;;14.20;99.90;;;;;;2050441;28;20614;-70
2023/10/19 01:03:52;;;;;;;3.00;2.00;;;14.20;99.90;;;;;;2055964;28;20491;-71
2023/10/19 01:05:08;;;;;;;2.53;1.90;;;14.20;99.90;;;;;;2055877;28;20483;-71
2023/10/19 01:06:14;;;;;;;3.57;2.10;;;14.30;99.90;;;;;;2054802;28;20464;-72
2023/10/19 01:07:22;;;;;;;2.70;1.73;;;14.30;99.90;;;;;;2051936;28;20814;-71
2023/10/19 01:08:32;;;;;;;3.53;2.40;;;14.40;99.90;;;;;;2054688;28;20828;-71
2023/10/19 01:09:36;;;;;;;6.60;2.17;;;14.50;99.90;;;;;;2055911;28;20487;-71
2023/10/19 01:10:37;;;;;;;4.00;2.13;;;14.60;99.90;;;;;;2050741;28;20484;-71
2023/10/19 01:11:38;;;;;;;4.63;2.10;;;14.60;99.90;;;;;;2052925;28;20531;-71
2023/10/19 01:12:40;;;;;;;3.87;2.10;;;14.50;99.90;;;;;;2055775;28;20234;-71
2023/10/19 01:13:44;;;;;;;2.80;2.00;;;14.40;99.90;;;;;;2045256;28;20598;-71
2023/10/19 01:14:45;;;;;;;2.27;2.03;;;14.40;99.90;;;;;;2051268;28;20492;-71
2023/10/19 01:15:49;;;;;;;3.30;2.10;;;14.30;99.90;;;;;;2055644;28;20468;-71
2023/10/19 01:16:49;;;;;;;2.93;2.20;;;14.20;99.90;;;;;;2055327;28;20234;-71
2023/10/19 01:17:57;;;;;;;2.53;1.70;;;14.20;99.90;;;;;;2053396;28;20975;-70
2023/10/19 01:18:58;;;;;;;3.47;2.40;;;14.20;99.90;;;;;;2050930;28;20262;-70
2023/10/19 01:19:59;;;;;;;3.07;2.03;;;14.20;99.90;;;;;;2056122;28;20468;-71
2023/10/19 01:21:04;;;;;;;4.33;2.00;;;14.20;99.90;;;;;;2055857;28;20226;-71
2023/10/19 01:22:20;;;;;;;2.07;1.87;;;14.30;99.90;;;;;;2055292;28;20288;-71
2023/10/19 01:23:25;;;;;;;3.97;2.20;;;14.30;99.90;;;;;;2055892;28;20433;-71
2023/10/19 01:24:41;;;;;;;5.43;2.00;;;14.30;99.90;;;;;;2049909;28;20231;-70
2023/10/19 01:25:59;;;;;;;3.20;1.90;;;14.20;99.90;;;;;;2054983;28;20540;-71
2023/10/19 01:27:00;;;;;;;2.57;2.00;;;14.20;99.90;;;;;;2051922;28;20495;-71
2023/10/19 01:28:08;;;;;;;1.73;1.63;;;14.30;99.90;;;;;;2047758;28;20538;-71
2023/10/19 01:29:17;;;;;;;2.60;2.03;;;14.20;99.90;;;;;;2054663;28;20235;-71
2023/10/19 01:30:18;;;;;;;2.10;1.80;;;14.30;99.90;;;;;;2055165;28;20464;-72
2023/10/19 01:32:30;;;;;;;2.67;1.80;;;14.20;99.90;;;;;;2052540;28;20468;-71
2023/10/19 01:33:30;;;;;;;2.87;1.80;;;14.20;99.90;;;;;;2055022;28;21030;-71
2023/10/19 01:34:33;;;;;;;3.50;1.63;;;14.30;99.90;;;;;;2055325;28;20223;-71
2023/10/19 01:36:54;;;;;;;2.43;1.87;;;14.30;99.90;;;;;;2045976;28;20467;-71
2023/10/19 01:37:55;;;;;;;3.23;2.17;;;14.30;99.90;;;;;;2046953;28;20593;-71
2023/10/19 01:39:00;;;;;;;2.13;1.90;;;14.30;99.90;;;;;;2057374;28;20471;-71
2023/10/19 01:40:01;;;;;;;4.23;2.03;;;14.30;99.90;;;;;;2055636;28;20215;-71
2023/10/19 01:41:13;;;;;;;2.90;2.07;;;14.20;99.90;;;;;;2053568;28;20959;-71
2023/10/19 01:42:13;;;;;;;2.53;1.80;;;14.20;99.90;;;;;;2054621;28;20302;-71
2023/10/19 01:43:21;;;;;;;2.27;2.03;;;14.20;99.90;;;;;;2055453;28;20445;-71
2023/10/19 01:44:21;;;;;;;3.93;1.87;;;14.20;99.90;;;;;;2048046;28;20179;-72
2023/10/19 01:45:22;;;;;;;3.40;2.00;;;14.20;99.90;;;;;;2055000;28;20432;-72
2023/10/19 01:47:24;;;;;;;3.57;1.90;;;14.40;99.90;;;;;;2058985;28;20822;-72
2023/10/19 01:48:35;;;;;;;5.77;2.20;;;14.40;99.90;;;;;;2053852;28;20245;-72
2023/10/19 01:49:37;;;;;;;3.90;2.10;;;14.30;99.90;;;;;;2053552;28;20739;-72
2023/10/19 01:50:39;;;;;;;3.57;2.23;;;14.30;99.90;;;;;;2051857;28;20473;-72
2023/10/19 01:51:40;;;;;;;3.83;2.60;;;14.20;99.90;;;;;;2053317;28;20507;-72
2023/10/19 01:52:41;;;;;;;4.70;2.17;;;14.20;99.90;;;;;;2054344;28;20473;-72
2023/10/19 01:53:46;;;;;;;4.23;2.40;;;14.20;99.90;;;;;;2056982;28;20221;-72
2023/10/19 01:54:46;;;;;;;4.50;2.58;;;14.20;99.90;;;;;;2054513;28;20839;-72
2023/10/19 01:55:47;;;;;;;3.23;2.20;;;14.10;99.90;;;;;;2056196;28;20238;-72
2023/10/19 01:56:56;;;;;;;5.30;2.40;;;14.00;99.90;;;;;;2056465;28;20241;-72
2023/10/19 01:57:56;;;;;;;5.00;2.87;;;14.10;99.90;;;;;;2056326;28;20479;-72
2023/10/19 01:58:58;;;;;;;5.10;3.20;;;14.00;99.90;;;;;;2057028;28;20476;-72
2023/10/19 01:59:58;;;;;;;4.22;2.92;;;13.80;99.90;;;;;;2056709;28;20223;-72
2023/10/19 02:01:06;;;;;;;6.23;2.90;;;13.70;99.90;;;;;;2055560;28;20239;-72
2023/10/19 02:02:09;;;;;;;4.43;3.30;;;13.60;99.90;;;;;;2054204;28;20229;-72
2023/10/19 02:03:10;;;;;;;4.65;3.33;;;13.40;99.90;;;;;;2056896;28;20425;-72
2023/10/19 02:04:13;;;;;;;4.23;3.50;;;13.20;99.90;;;;;;2055338;28;20273;-72
2023/10/19 02:05:15;;;;;;;3.95;3.15;;;13.10;99.90;;;;;;2052784;28;20576;-72
2023/10/19 02:06:17;;;;;;;4.80;3.22;;;13.00;99.90;;;;;;2047650;28;20676;-72
2023/10/19 02:07:18;;;;;;;3.80;3.20;;;13.00;99.90;;;;;;2040253;28;20616;-72
2023/10/19 02:08:25;;;;;;;4.13;3.73;;;12.90;99.90;;;;;;2048439;28;20194;-72
2023/10/19 02:09:28;;;;;;;6.40;3.95;;;12.80;99.90;;;;;;2046586;28;20244;-72
2023/10/19 02:10:29;;;;;;;5.40;4.63;;;12.70;99.90;;;;;;2055428;28;20257;-72
2023/10/19 02:11:30;;;;;;;5.67;4.33;;;12.70;99.90;;;;;;2048002;28;20235;-72
2023/10/19 02:12:34;;;;;;;5.53;4.25;;;12.60;99.90;;;;;;2047372;28;20239;-72
2023/10/19 02:13:36;;;;;;;5.78;4.80;;;12.50;99.90;;;;;;2048841;28;20235;-72
2023/10/19 02:14:37;;;;;;;6.72;4.60;;;12.50;99.90;;;;;;2054323;28;20310;-72
2023/10/19 02:15:38;;;;;;;6.28;4.63;;;12.40;99.90;;;;;;2047721;28;20227;-72
2023/10/19 02:16:40;;;;;;;5.15;4.65;;;12.40;99.90;;;;;;2048642;28;20289;-72
2023/10/19 02:17:41;;;;;;;6.60;4.68;;;12.40;99.90;;;;;;2054351;28;20674;-72
2023/10/19 02:18:43;;;;;;;5.53;4.60;;;12.50;99.90;;;;;;2048528;28;20234;-72
2023/10/19 02:19:43;;;;;;;6.72;5.25;;;12.40;99.90;;;;;;2045643;28;20236;-72
2023/10/19 02:20:48;;;;;;;6.50;5.70;;;12.30;99.90;;;;;;2048355;28;20231;-72
2023/10/19 02:21:51;;;;;;;5.55;4.53;;;12.10;99.90;;;;;;2044972;29;20219;-72
2023/10/19 02:22:52;;;;;;;9.27;5.82;;;12.10;99.90;;;;;;2045101;28;20228;-71
2023/10/19 02:23:53;;;;;;;6.63;6.00;;;12.00;99.90;;;;;;2057232;28;20688;-72
2023/10/19 02:24:54;;;;;;;8.25;6.72;;;12.00;99.90;;;;;;2055925;28;20293;-72
2023/10/19 02:25:55;;;;;;;6.77;6.00;;;12.00;99.90;;;;;;2053242;28;20234;-72
2023/10/19 02:26:57;;;;;;;8.97;7.20;;;12.10;99.90;;;;;;2063104;28;20280;-71
2023/10/19 02:27:58;;;;;;;8.25;6.43;;;12.00;99.90;;;;;;2055529;28;20227;-72
2023/10/19 02:28:58;;;;;;;8.17;6.57;;;12.00;99.90;;;;;;2053877;28;20724;-72
2023/10/19 02:29:59;;;;;;;8.93;6.33;;;11.90;99.90;;;;;;2055434;28;20384;-72
2023/10/19 02:31:11;;;;;;;6.23;5.63;;;12.00;99.90;;;;;;2054671;28;20281;-72
2023/10/19 02:32:11;;;;;;;8.60;6.65;;;12.00;99.90;;;;;;2044297;28;20266;-72
2023/10/19 02:33:12;;;;;;;9.23;7.13;;;11.90;99.90;;;;;;2054143;28;20195;-72
2023/10/19 02:34:14;;;;;;;8.87;5.90;;;11.80;99.90;;;;;;2051874;28;20242;-72
2023/10/19 02:35:15;;;;;;;9.18;6.55;;;11.70;99.90;;;;;;2055066;28;20256;-72
2023/10/19 02:36:16;;;;;;;8.53;7.10;;;11.70;99.90;;;;;;2056720;28;20190;-71
2023/10/19 02:37:16;;;;;;;11.93;7.57;;;11.60;99.90;;;;;;2056403;28;20198;-71
2023/10/19 02:38:17;;;;;;;8.90;6.67;;;11.60;99.90;;;;;;2057054;28;20274;-71
2023/10/19 02:39:17;;;;;;;10.90;8.30;;;11.50;99.90;;;;;;2054713;28;20728;-72
2023/10/19 02:40:23;;;;;;;8.63;7.50;;;11.50;99.90;;;;;;2054469;28;20275;-71
2023/10/19 02:41:26;;;;;;;10.57;7.85;;;11.50;99.90;;;;;;2055658;28;20206;-71
2023/10/19 02:42:27;;;;;;;8.05;7.25;;;11.50;99.90;;;;;;2047773;28;20243;-72
2023/10/19 02:43:29;;;;;;;7.97;7.17;;;11.50;99.90;;;;;;2048535;28;20314;-71
2023/10/19 02:44:30;;;;;;;9.82;6.45;;;11.50;99.90;;;;;;2055075;28;20551;-72
2023/10/19 02:45:31;;;;;;;7.70;6.83;;;11.50;99.90;;;;;;2054980;28;20396;-71
2023/10/19 02:46:32;;;;;;;8.87;7.33;;;11.40;99.90;;;;;;2056400;28;20273;-72
2023/10/19 02:47:33;;;;;;;9.57;6.93;;;11.30;99.90;;;;;;2056122;28;20231;-71
2023/10/19 02:48:35;;;;;;;8.60;7.53;;;11.30;99.90;;;;;;2057047;28;20751;-71
2023/10/19 02:49:38;;;;;;;11.52;8.40;;;11.30;99.90;;;;;;2055675;28;20286;-72
2023/10/19 02:50:39;;;;;;;9.95;8.00;;;11.30;99.90;;;;;;2049627;28;20237;-71
2023/10/19 02:51:45;;;;;;;10.47;7.53;;;11.20;99.90;;;;;;2052876;28;20250;-71
2023/10/19 02:52:45;;;;;;;9.07;7.80;;;11.20;99.90;;;;;;2057357;28;20724;-72
2023/10/19 02:53:46;;;;;;;9.50;8.50;;;11.20;99.90;;;;;;2056292;28;20249;-71
2023/10/19 02:54:47;;;;;;;11.77;7.80;;;11.20;99.90;;;;;;2049081;28;20298;-71
2023/10/19 02:55:51;;;;;;;11.33;8.03;;;11.10;99.90;;;;;;2049778;28;20663;-71
2023/10/19 02:56:53;;;;;;;9.00;7.45;;;11.00;99.90;;;;;;2054868;28;20256;-71
2023/10/19 02:57:54;;;;;;;11.00;8.35;;;11.00;99.90;;;;;;2056310;28;20254;-71
2023/10/19 02:59:01;;;;;;;11.90;8.90;;;11.00;99.90;;;;;;2055540;28;20313;-71
2023/10/19 03:00:13;;;;;;;8.48;6.93;;;11.00;99.90;;;;;;2055973;28;20483;-72
2023/10/19 03:01:19;;;;;;;11.95;8.18;;;11.00;99.90;;;;;;2054627;28;20218;-71
2023/10/19 03:02:20;;;;;;;9.95;7.35;;;10.90;99.90;;;;;;2054744;28;20223;-72
2023/10/19 03:03:21;;;;;;;10.73;8.27;;;10.80;99.90;;;;;;2056184;28;20241;-71
2023/10/19 03:04:22;;;;;;;12.83;7.67;;;10.70;99.90;;;;;;2054828;28;20195;-71
2023/10/19 03:05:25;;;;;;;9.93;7.67;;;10.80;99.90;;;;;;2044452;28;20184;-71
2023/10/19 03:06:33;;;;;;;8.93;7.40;;;10.90;99.90;;;;;;2048546;28;20251;-72
2023/10/19 03:07:34;;;;;;;10.30;7.30;;;10.80;99.90;;;;;;2052376;28;20239;-72
2023/10/19 03:08:37;;;;;;;8.17;5.87;;;10.90;99.90;;;;;;2052912;28;20273;-71
2023/10/19 03:09:48;;;;;;;9.52;7.72;;;10.90;99.90;;;;;;2053638;28;20242;-71
2023/10/19 03:11:03;;;;;;;10.85;8.32;;;10.90;99.90;;;;;;2054509;28;20222;-71
2023/10/19 03:12:09;;;;;;;11.23;7.97;;;10.80;99.90;;;;;;2052059;28;20819;-71
2023/10/19 03:13:11;;;;;;;9.73;8.48;;;10.80;99.90;;;;;;2047970;28;20225;-72
2023/10/19 03:14:14;;;;;;;9.68;7.32;;;10.70;99.90;;;;;;2050686;28;20194;-72
2023/10/19 03:15:15;;;;;;;7.43;6.07;;;10.70;99.90;;;;;;2053809;28;20190;-71
2023/10/19 03:16:17;;;;;;;4.28;3.88;;;10.60;99.90;;;;;;2057358;28;20182;-72
2023/10/19 03:17:18;;;;;;;5.70;4.43;;;10.90;99.90;;;;;;2057322;28;20584;-71
2023/10/19 03:18:18;;;;;;;6.43;4.27;;;11.20;99.90;;;;;;2057298;28;20191;-71
2023/10/19 03:19:20;;;;;;;5.90;4.07;;;11.30;99.90;;;;;;2058346;28;20211;-72
2023/10/19 03:20:23;;;;;;;6.65;4.53;;;11.40;99.90;;;;;;2056137;28;20222;-71
2023/10/19 03:21:27;;;;;;;4.25;3.53;;;11.50;99.90;;;;;;2054725;28;20632;-72
2023/10/19 03:22:28;;;;;;;5.20;3.50;;;11.70;99.90;;;;;;2055878;28;20716;-72
2023/10/19 03:23:28;;;;;;;3.70;3.20;;;11.90;99.90;;;;;;2055102;28;20222;-71
2023/10/19 03:24:35;;;;;;;3.23;2.90;;;12.00;99.90;;;;;;2054445;28;20715;-71
2023/10/19 03:26:59;;;;;;;3.22;2.83;;;12.30;99.90;;;;;;2055057;28;20256;-71
2023/10/19 03:28:08;;;;;;;3.50;2.60;;;12.30;99.90;;;;;;2054752;28;20219;-72
2023/10/19 03:29:15;;;;;;;3.40;3.10;;;12.40;99.90;;;;;;2052536;28;21082;-72
2023/10/19 03:30:19;;;;;;;3.88;3.00;;;12.50;99.90;;;;;;2061150;28;20197;-72
2023/10/19 03:31:22;;;;;;;4.47;3.40;;;12.40;99.90;;;;;;2055204;28;20187;-72
2023/10/19 03:32:28;;;;;;;3.25;2.22;;;12.50;99.90;;;;;;2053947;28;20258;-71
2023/10/19 03:33:28;;;;;;;2.42;2.22;;;12.40;99.90;;;;;;2055458;28;20308;-72
2023/10/19 03:34:32;;;;;;;2.77;2.17;;;12.50;99.90;;;;;;2053303;28;20238;-72
2023/10/19 03:35:34;;;;;;;3.53;2.03;;;12.50;99.90;;;;;;2055098;28;20230;-72
2023/10/19 03:36:36;;;;;;;2.92;1.88;;;12.60;99.90;;;;;;2055394;28;20222;-71
2023/10/19 03:37:37;;;;;;;4.25;3.22;;;12.60;99.90;;;;;;2051916;28;20227;-71
2023/10/19 03:38:37;;;;;;;3.23;2.93;;;12.60;99.90;;;;;;2054930;28;20322;-71
2023/10/19 03:39:38;;;;;;;2.57;2.10;;;12.70;99.90;;;;;;2053693;28;20226;-72
2023/10/19 03:40:39;;;;;;;4.57;2.20;;;12.60;99.90;;;;;;2051538;28;20768;-71
2023/10/19 03:41:44;;;;;;;3.10;2.03;;;12.60;99.90;;;;;;2050802;28;20239;-71
2023/10/19 03:42:46;;;;;;;3.17;1.88;;;12.70;99.90;;;;;;2052084;28;20242;-72
2023/10/19 03:43:52;;;;;;;2.10;1.83;;;12.60;99.90;;;;;;2053817;28;20627;-71
2023/10/19 03:44:53;;;;;;;1.65;1.55;;;12.70;99.90;;;;;;2051526;28;20270;-71
2023/10/19 03:45:55;;;;;;;2.33;1.50;;;12.80;99.90;;;;;;2050815;28;20748;-71
2023/10/19 03:47:03;;;;;;;2.25;1.60;;;12.80;99.90;;;;;;2053440;28;20231;-71
2023/10/19 03:48:08;;;;;;;4.00;1.70;;;12.90;99.90;;;;;;2055070;28;20333;-71
2023/10/19 03:49:12;;;;;;;1.77;1.40;;;13.00;99.90;;;;;;2060193;28;20271;-72
2023/10/19 03:50:14;;;;;;;1.60;1.30;;;13.10;99.90;;;;;;2054585;28;20207;-72
2023/10/19 03:51:16;;;;;;;1.90;1.40;;;13.10;99.90;;;;;;2056164;28;20521;-71
2023/10/19 03:53:18;;;;;;;1.37;1.27;;;13.30;99.90;;;;;;2054340;28;20562;-72
2023/10/19 03:54:21;;;;;;;3.50;1.30;;;13.30;99.90;;;;;;2055608;28;20270;-72
2023/10/19 03:55:23;;;;;;;3.75;1.67;;;13.30;99.90;;;;;;2055755;28;20611;-72
2023/10/19 03:56:24;;;;;;;2.22;1.40;;;13.40;99.90;;;;;;2055173;28;20276;-71
2023/10/19 03:57:29;;;;;;;2.30;1.30;;;13.40;99.90;;;;;;2055351;28;21230;-71
2023/10/19 03:58:30;;;;;;;3.03;1.55;;;13.40;99.90;;;;;;2047047;28;20319;-72
2023/10/19 03:59:33;;;;;;;2.88;1.40;;;13.50;99.90;;;;;;2055587;28;20237;-72
2023/10/19 04:00:34;;;;;;;1.50;1.40;;;13.50;99.90;;;;;;2063443;28;20230;-70
2023/10/19 04:01:35;;;;;;;2.10;1.37;;;13.50;99.90;;;;;;2055921;28;20239;-71
2023/10/19 04:02:38;;;;;;;3.50;1.40;;;13.50;99.90;;;;;;2054774;28;20290;-71
2023/10/19 04:03:38;;;;;;;2.05;1.52;;;13.50;99.90;;;;;;2055329;28;20234;-70
2023/10/19 04:04:46;;;;;;;2.60;1.40;;;13.50;99.90;;;;;;2053784;28;20784;-70
2023/10/19 04:05:46;;;;;;;1.77;1.40;;;13.50;99.90;;;;;;2059860;28;20233;-70
2023/10/19 04:06:47;;;;;;;1.47;1.30;;;13.50;99.90;;;;;;2053411;28;20258;-71
2023/10/19 04:07:56;;;;;;;2.10;1.43;;;13.60;99.90;;;;;;2056039;28;20289;-71
2023/10/19 04:08:57;;;;;;;4.80;3.30;;;13.60;99.90;;;;;;2043284;29;20378;-71
2023/10/19 04:11:22;;;;;;;2.92;1.50;;;13.50;99.90;;;;;;2061081;28;20265;-71
2023/10/19 04:12:24;;;;;;;3.03;1.65;;;13.50;99.90;;;;;;2054955;28;20206;-71
2023/10/19 04:13:25;;;;;;;3.77;2.40;;;13.60;99.90;;;;;;2053266;28;21693;-71
2023/10/19 04:14:25;;;;;;;2.37;1.90;;;13.60;99.90;;;;;;2053444;28;20503;-71
2023/10/19 04:15:26;;;;;;;1.63;1.50;;;13.60;99.90;;;;;;2056106;28;20234;-71
2023/10/19 04:16:28;;;;;;;1.40;1.10;;;13.60;99.90;;;;;;2054203;28;20226;-71
2023/10/19 04:17:29;;;;;;;2.80;1.20;;;13.70;99.90;;;;;;2055353;28;20237;-71
2023/10/19 04:18:29;;;;;;;3.90;2.90;;;13.60;99.90;;;;;;2056484;28;20472;-71
2023/10/19 04:19:30;;;;;;;2.10;1.50;;;13.70;99.90;;;;;;2054723;28;20723;-72
2023/10/19 04:21:50;;;;;;;3.05;1.30;;;13.70;99.90;;;;;;2055604;28;20246;-71
2023/10/19 04:22:51;;;;;;;2.23;1.63;;;13.70;99.90;;;;;;2055291;28;20218;-70
2023/10/19 04:23:52;;;;;;;2.93;1.13;;;13.70;99.90;;;;;;2054487;28;20464;-71
2023/10/19 04:24:54;;;;;;;2.40;1.27;;;13.70;99.90;;;;;;2054202;28;20219;-71
2023/10/19 04:25:58;;;;;;;4.13;1.30;;;13.70;99.90;;;;;;2051222;28;20258;-71
2023/10/19 04:26:59;;;;;;;1.83;1.33;;;13.70;99.90;;;;;;2053724;28;20500;-71
2023/10/19 04:28:00;;;;;;;3.23;1.20;;;13.70;99.90;;;;;;2049904;28;20473;-71
2023/10/19 04:29:09;;;;;;;1.50;1.30;;;13.70;99.90;;;;;;2063362;28;20230;-71
2023/10/19 04:30:23;;;;;;;3.07;1.30;;;13.80;99.90;;;;;;2055137;28;20222;-71
2023/10/19 04:31:23;;;;;;;2.90;1.30;;;13.80;99.90;;;;;;2055648;28;20444;-71
2023/10/19 04:32:26;;;;;;;1.40;1.07;;;13.90;99.90;;;;;;2056965;28;20583;-71
2023/10/19 04:33:28;;;;;;;1.60;1.23;;;13.90;99.90;;;;;;2057045;28;20235;-71
2023/10/19 04:34:29;;;;;;;2.07;1.70;;;13.90;99.90;;;;;;2056562;28;20511;-72
2023/10/19 04:35:30;;;;;;;2.10;1.50;;;13.90;99.90;;;;;;2056588;28;20464;-71
2023/10/19 04:36:30;;;;;;;1.87;1.53;;;14.00;99.90;;;;;;2057484;28;20484;-71
2023/10/19 04:37:31;;;;;;;1.80;1.50;;;14.00;99.90;;;;;;2055943;28;20301;-71
2023/10/19 04:38:33;;;;;;;1.37;1.10;;;14.00;99.90;;;;;;2055718;28;20231;-71
2023/10/19 04:39:34;;;;;;;1.48;1.25;;;14.00;99.90;;;;;;2055096;28;20317;-71
2023/10/19 04:40:35;;;;;;;1.20;1.10;;;14.00;99.90;;;;;;2048067;28;20235;-71
2023/10/19 04:41:36;;;;;;;2.60;1.60;;;14.00;99.90;;;;;;2045728;28;20462;-71
2023/10/19 04:42:37;;;;;;;2.50;1.50;;;14.00;99.90;;;;;;2055138;28;20480;-71
2023/10/19 04:43:39;;;;;;;2.77;1.40;;;14.00;99.90;;;;;;2055767;28;20242;-71
2023/10/19 04:44:40;;;;;;;3.30;1.40;;;14.10;99.90;;;;;;2053229;28;20523;-71
2023/10/19 04:45:40;;;;;;;2.33;1.20;;;14.10;99.90;;;;;;2056341;28;20906;-71
2023/10/19 04:46:42;;;;;;;1.60;1.13;;;14.10;99.90;;;;;;2054638;28;20233;-71
2023/10/19 04:47:42;;;;;;;1.83;1.20;;;14.00;99.90;;;;;;2054823;28;20289;-71
2023/10/19 04:48:43;;;;;;;2.37;1.30;;;14.10;99.90;;;;;;2054472;28;20472;-71
2023/10/19 04:49:44;;;;;;;2.73;1.27;;;14.10;99.90;;;;;;2052415;28;20242;-71
2023/10/19 04:50:44;;;;;;;3.33;1.30;;;14.10;99.90;;;;;;2054305;28;20683;-71
2023/10/19 04:51:45;;;;;;;2.83;1.40;;;14.10;99.90;;;;;;2052217;28;20250;-71
2023/10/19 04:52:46;;;;;;;1.33;1.23;;;14.10;99.90;;;;;;2053820;28;20756;-71
2023/10/19 04:53:46;;;;;;;2.27;1.20;;;14.10;99.90;;;;;;2055000;28;20227;-71
2023/10/19 04:54:47;;;;;;;2.43;1.20;;;14.20;99.90;;;;;;2047163;28;20238;-71
2023/10/19 04:55:47;;;;;;;3.43;1.40;;;14.20;99.90;;;;;;2046593;28;20224;-71
2023/10/19 04:56:48;;;;;;;1.93;1.27;;;14.20;99.90;;;;;;2053328;28;20215;-71
2023/10/19 04:57:49;;;;;;;1.30;1.13;;;14.20;99.90;;;;;;2056181;28;20222;-70
2023/10/19 04:58:52;;;;;;;1.63;1.10;;;14.20;99.90;;;;;;2054016;28;20234;-71
2023/10/19 04:59:53;;;;;;;1.40;1.30;;;14.20;99.90;;;;;;2050988;28;20285;-71
2023/10/19 05:00:54;;;;;;;2.83;1.40;;;14.20;99.90;;;;;;2055196;28;21042;-71
2023/10/19 05:01:55;;;;;;;1.60;1.30;;;14.20;99.90;;;;;;2047214;28;20238;-71
2023/10/19 05:02:55;;;;;;;2.30;1.33;;;14.10;99.90;;;;;;2054135;28;20560;-71
2023/10/19 05:03:56;;;;;;;1.87;1.67;;;14.10;99.90;;;;;;2048105;28;20242;-71
2023/10/19 05:04:57;;;;;;;3.33;1.63;;;14.10;99.90;;;;;;2048755;28;20234;-71
2023/10/19 05:05:57;;;;;;;3.60;1.60;;;14.10;99.90;;;;;;2052767;28;20885;-71
2023/10/19 05:06:58;;;;;;;1.57;1.30;;;14.10;99.90;;;;;;2050964;28;20233;-71
2023/10/19 05:07:58;;;;;;;3.43;1.60;;;14.00;99.90;;;;;;2054054;28;20228;-71
2023/10/19 05:08:59;;;;;;;1.87;1.23;;;14.10;99.90;;;;;;2052250;28;20234;-71
2023/10/19 05:10:00;;;;;;;2.17;1.40;;;14.10;99.90;;;;;;2054022;28;20646;-71
2023/10/19 05:11:00;;;;;;;2.27;1.70;;;14.10;99.90;;;;;;2054268;28;20719;-71
2023/10/19 05:12:01;;;;;;;1.70;1.47;;;14.10;99.90;;;;;;2052746;28;20254;-71
2023/10/19 05:13:02;;;;;;;1.50;1.40;;;14.10;99.90;;;;;;2052262;28;20254;-71
2023/10/19 05:14:05;;;;;;;1.73;1.40;;;14.10;99.90;;;;;;2045397;28;20228;-71
2023/10/19 05:15:06;;;;;;;1.77;1.37;;;14.10;99.90;;;;;;2052833;28;20461;-71
2023/10/19 05:16:07;;;;;;;2.03;1.60;;;14.10;99.90;;;;;;2050306;28;20524;-72
2023/10/19 05:17:12;;;;;;;3.97;1.50;;;14.10;99.90;;;;;;2053367;28;20270;-71
2023/10/19 05:18:12;;;;;;;2.00;1.70;;;14.10;99.90;;;;;;2054417;28;20452;-71
2023/10/19 05:19:13;;;;;;;2.53;1.93;;;14.10;99.90;;;;;;2055426;28;20524;-71
2023/10/19 05:20:13;;;;;;;3.70;2.77;;;14.10;99.90;;;;;;2055808;28;20213;-71
2023/10/19 05:21:14;;;;;;;3.43;2.77;;;14.20;99.90;;;;;;2055504;28;20713;-71
2023/10/19 05:22:16;;;;;;;4.03;2.40;;;14.20;99.90;;;;;;2055339;28;20215;-69
2023/10/19 05:23:19;;;;;;;3.03;2.20;;;14.20;99.90;;;;;;2055324;28;20420;-71
2023/10/19 05:24:20;;;;;;;4.00;2.83;;;14.30;99.90;;;;;;2055873;28;20435;-71
2023/10/19 05:25:23;;;;;;;10.00;6.33;;;14.20;99.90;;;;;;2054427;28;20429;-71
2023/10/19 05:26:24;;;;;;;12.37;8.13;;;14.20;99.90;;;;;;2048143;28;20718;-71
2023/10/19 05:27:25;;;;;;;14.00;9.07;;;14.20;99.90;;;;;;2054221;28;20830;-73
2023/10/19 05:28:25;;;;;;;12.80;7.73;;;14.20;99.90;;;;;;2051919;28;20621;-72
2023/10/19 05:29:26;;;;;;;4.37;3.13;;;14.10;99.90;;;;;;2054660;28;20477;-71
2023/10/19 05:30:27;;;;;;;6.70;4.17;;;14.10;99.90;;;;;;2047487;28;20302;-71
2023/10/19 05:31:30;;;;;;;4.70;3.83;;;14.00;99.90;;;;;;2055590;28;20234;-72
2023/10/19 05:32:33;;;;;;;3.47;2.80;;;13.90;99.90;;;;;;2054463;28;20473;-72
2023/10/19 05:33:33;;;;;;;2.63;2.23;;;13.80;99.90;;;;;;2047191;28;20921;-71
2023/10/19 05:34:35;;;;;;;2.53;2.10;;;13.80;99.90;;;;;;2046885;29;20469;-71
2023/10/19 05:35:40;;;;;;;2.63;2.17;;;13.70;99.90;;;;;;2043450;28;20290;-72
2023/10/19 05:36:43;;;;;;;2.60;2.40;;;13.60;99.90;;;;;;2050559;28;20227;-71
2023/10/19 05:37:43;;;;;;;2.78;2.47;;;13.40;99.90;;;;;;2055825;28;20362;-71
2023/10/19 05:38:44;;;;;;;3.20;2.40;;;13.30;99.90;;;;;;2048016;28;20246;-71
2023/10/19 05:39:46;;;;;;;4.03;3.20;;;13.20;99.90;;;;;;2047413;28;20242;-70
2023/10/19 05:40:47;;;;;;;5.13;3.65;;;13.20;99.90;;;;;;2055625;28;20237;-70
2023/10/19 05:41:48;;;;;;;3.33;2.70;;;13.20;99.90;;;;;;2062278;28;20321;-70